sensor_id;sensor_type;location;lat;lon;timestamp;pressure;altitude;pressure_sealevel;temperature;humidity
36092;BME280;22147;52.388;13.390;2024-01-27T00:00:45;101789.84;;;2.46;100.00
36092;BME280;22147;52.388;13.390;2024-01-27T00:03:16;101803.78;;;2.44;100.00
36092;BME280;22147;52.388;13.390;2024-01-27T00:05:46;101799.66;;;2.42;100.00
36092;BME280;22147;52.388;13.390;2024-01-27T00:08:16;101806.13;;;2.53;100.00
36092;BME280;22147;52.388;13.390;2024-01-27T00:10:47;101812.59;;;2.47;100.00
36092;BME280;22147;52.388;13.390;2024-01-27T00:13:17;101804.22;;;2.53;100.00
36092;BME280;22147;52.388;13.390;2024-01-27T00:15:47;101797.97;;;2.58;100.00
36092;BME280;22147;52.388;13.390;2024-01-27T00:18:18;101824.31;;;2.42;100.00
36092;BME280;22147;52.388;13.390;2024-01-27T00:20:48;101813.59;;;2.40;100.00
36092;BME280;22147;52.388;13.390;2024-01-27T00:23:18;101810.63;;;2.42;100.00
36092;BME280;22147;52.388;13.390;2024-01-27T00:25:49;101815.69;;;2.50;100.00
36092;BME280;22147;52.388;13.390;2024-01-27T00:28:19;101816.44;;;2.46;100.00
36092;BME280;22147;52.388;13.390;2024-01-27T00:30:49;101808.34;;;2.39;100.00
36092;BME280;22147;52.388;13.390;2024-01-27T00:33:19;101812.66;;;2.35;100.00
36092;BME280;22147;52.388;13.390;2024-01-27T00:35:51;101815.69;;;2.50;100.00
36092;BME280;22147;52.388;13.390;2024-01-27T00:38:21;101821.94;;;2.46;100.00
36092;BME280;22147;52.388;13.390;2024-01-27T00:40:52;101823.41;;;2.53;100.00
36092;BME280;22147;52.388;13.390;2024-01-27T00:43:23;101818.75;;;2.54;100.00
36092;BME280;22147;52.388;13.390;2024-01-27T00:45:53;101822.25;;;2.49;100.00
36092;BME280;22147;52.388;13.390;2024-01-27T00:48:23;101819.44;;;2.44;100.00
36092;BME280;22147;52.388;13.390;2024-01-27T00:50:54;101819.31;;;2.39;100.00
36092;BME280;22147;52.388;13.390;2024-01-27T00:53:24;101812.59;;;2.47;100.00
36092;BME280;22147;52.388;13.390;2024-01-27T00:55:54;101825.06;;;2.37;100.00
36092;BME280;22147;52.388;13.390;2024-01-27T00:58:24;101819.66;;;2.42;100.00
36092;BME280;22147;52.388;13.390;2024-01-27T01:00:56;101834.19;;;2.43;100.00
36092;BME280;22147;52.388;13.390;2024-01-27T01:03:26;101827.06;;;2.42;100.00
36092;BME280;22147;52.388;13.390;2024-01-27T01:05:56;101833.03;;;2.39;100.00
36092;BME280;22147;52.388;13.390;2024-01-27T01:08:27;101837.59;;;2.33;100.00
36092;BME280;22147;52.388;13.390;2024-01-27T01:10:57;101846.06;;;2.32;100.00
36092;BME280;22147;52.388;13.390;2024-01-27T01:13:28;101837.69;;;2.38;100.00
36092;BME280;22147;52.388;13.390;2024-01-27T01:15:58;101841.66;;;2.31;100.00
36092;BME280;22147;52.388;13.390;2024-01-27T01:18:28;101844.06;;;2.27;100.00
36092;BME280;22147;52.388;13.390;2024-01-27T01:20:59;101852.75;;;2.24;100.00
36092;BME280;22147;52.388;13.390;2024-01-27T01:23:28;101848.84;;;2.20;100.00
36092;BME280;22147;52.388;13.390;2024-01-27T01:25:58;101857.19;;;2.25;100.00
36092;BME280;22147;52.388;13.390;2024-01-27T01:28:28;101848.03;;;2.19;100.00
36092;BME280;22147;52.388;13.390;2024-01-27T01:30:56;101852.69;;;2.19;100.00
36092;BME280;22147;52.388;13.390;2024-01-27T01:33:26;101863.19;;;2.10;100.00
36092;BME280;22147;52.388;13.390;2024-01-27T01:35:57;101866.31;;;2.02;100.00
36092;BME280;22147;52.388;13.390;2024-01-27T01:38:27;101873.44;;;2.03;100.00
36092;BME280;22147;52.388;13.390;2024-01-27T01:40:57;101874.75;;;2.12;100.00
36092;BME280;22147;52.388;13.390;2024-01-27T01:43:27;101866.47;;;2.24;100.00
36092;BME280;22147;52.388;13.390;2024-01-27T01:45:58;101865.34;;;2.08;100.00
36092;BME280;22147;52.388;13.390;2024-01-27T01:48:28;101855.06;;;2.15;100.00
36092;BME280;22147;52.388;13.390;2024-01-27T01:51:00;101864.81;;;2.23;100.00
36092;BME280;22147;52.388;13.390;2024-01-27T01:53:31;101859.22;;;2.18;100.00
36092;BME280;22147;52.388;13.390;2024-01-27T01:56:02;101858.63;;;2.16;100.00
36092;BME280;22147;52.388;13.390;2024-01-27T01:58:34;101865.94;;;2.10;100.00
36092;BME280;22147;52.388;13.390;2024-01-27T02:01:04;101861.88;;;2.13;100.00
36092;BME280;22147;52.388;13.390;2024-01-27T02:03:34;101868.69;;;2.10;100.00
36092;BME280;22147;52.388;13.390;2024-01-27T02:06:06;101871.81;;;2.02;100.00
36092;BME280;22147;52.388;13.390;2024-01-27T02:08:37;101877.19;;;1.97;100.00
36092;BME280;22147;52.388;13.390;2024-01-27T02:11:07;101882.44;;;1.87;100.00
36092;BME280;22147;52.388;13.390;2024-01-27T02:13:37;101878.59;;;1.99;100.00
36092;BME280;22147;52.388;13.390;2024-01-27T02:16:08;101887.03;;;2.10;100.00
36092;BME280;22147;52.388;13.390;2024-01-27T02:18:38;101897.88;;;2.16;100.00
36092;BME280;22147;52.388;13.390;2024-01-27T02:21:08;101880.47;;;2.11;100.00
36092;BME280;22147;52.388;13.390;2024-01-27T02:23:39;101879.00;;;2.20;100.00
36092;BME280;22147;52.388;13.390;2024-01-27T02:26:09;101881.72;;;2.32;100.00
36092;BME280;22147;52.388;13.390;2024-01-27T02:28:39;101887.56;;;2.23;100.00
36092;BME280;22147;52.388;13.390;2024-01-27T02:31:10;101892.59;;;2.27;100.00
36092;BME280;22147;52.388;13.390;2024-01-27T02:33:40;101897.94;;;2.21;100.00
36092;BME280;22147;52.388;13.390;2024-01-27T02:36:10;101904.53;;;2.20;100.00
36092;BME280;22147;52.388;13.390;2024-01-27T02:38:41;101915.97;;;2.17;100.00
36092;BME280;22147;52.388;13.390;2024-01-27T02:41:11;101919.19;;;2.14;100.00
36092;BME280;22147;52.388;13.390;2024-01-27T02:43:41;101916.91;;;2.23;100.00
36092;BME280;22147;52.388;13.390;2024-01-27T02:46:13;101913.81;;;2.19;100.00
36092;BME280;22147;52.388;13.390;2024-01-27T02:48:45;101912.31;;;2.12;100.00
36092;BME280;22147;52.388;13.390;2024-01-27T02:51:19;101918.84;;;2.11;100.00
36092;BME280;22147;52.388;13.390;2024-01-27T02:53:52;101919.06;;;2.09;100.00
36092;BME280;22147;52.388;13.390;2024-01-27T02:56:22;101921.88;;;2.26;100.00
36092;BME280;22147;52.388;13.390;2024-01-27T02:58:53;101927.50;;;2.19;100.00
36092;BME280;22147;52.388;13.390;2024-01-27T03:01:20;101922.53;;;2.04;100.00
36092;BME280;22147;52.388;13.390;2024-01-27T03:03:51;101926.75;;;1.95;100.00
36092;BME280;22147;52.388;13.390;2024-01-27T03:06:21;101921.88;;;1.86;100.00
36092;BME280;22147;52.388;13.390;2024-01-27T03:08:51;101928.06;;;1.93;100.00
36092;BME280;22147;52.388;13.390;2024-01-27T03:11:22;101927.22;;;1.92;100.00
36092;BME280;22147;52.388;13.390;2024-01-27T03:13:52;101926.53;;;1.85;100.00
36092;BME280;22147;52.388;13.390;2024-01-27T03:16:22;101926.28;;;1.75;100.00
36092;BME280;22147;52.388;13.390;2024-01-27T03:18:52;101923.81;;;1.61;100.00
36092;BME280;22147;52.388;13.390;2024-01-27T03:21:22;101936.53;;;1.56;100.00
36092;BME280;22147;52.388;13.390;2024-01-27T03:23:52;101932.84;;;1.50;100.00
36092;BME280;22147;52.388;13.390;2024-01-27T03:26:23;101933.34;;;1.59;100.00
36092;BME280;22147;52.388;13.390;2024-01-27T03:28:54;101944.50;;;1.69;100.00
36092;BME280;22147;52.388;13.390;2024-01-27T03:31:30;101949.38;;;1.67;100.00
36092;BME280;22147;52.388;13.390;2024-01-27T03:34:02;101941.75;;;1.69;100.00
36092;BME280;22147;52.388;13.390;2024-01-27T03:36:33;101930.72;;;1.64;100.00
36092;BME280;22147;52.388;13.390;2024-01-27T03:39:04;101931.66;;;1.58;100.00
36092;BME280;22147;52.388;13.390;2024-01-27T03:41:35;101931.44;;;1.59;100.00
36092;BME280;22147;52.388;13.390;2024-01-27T03:44:05;101932.25;;;1.60;100.00
36092;BME280;22147;52.388;13.390;2024-01-27T03:46:33;101930.09;;;1.62;100.00
36092;BME280;22147;52.388;13.390;2024-01-27T03:49:02;101933.19;;;1.54;100.00
36092;BME280;22147;52.388;13.390;2024-01-27T03:51:31;101938.31;;;1.50;100.00
36092;BME280;22147;52.388;13.390;2024-01-27T03:54:00;101924.50;;;1.45;100.00
36092;BME280;22147;52.388;13.390;2024-01-27T03:56:30;101941.66;;;1.40;100.00
36092;BME280;22147;52.388;13.390;2024-01-27T03:59:00;101938.44;;;1.43;100.00
36092;BME280;22147;52.388;13.390;2024-01-27T04:01:30;101934.63;;;1.45;100.00
36092;BME280;22147;52.388;13.390;2024-01-27T04:04:01;101948.44;;;1.38;100.00
36092;BME280;22147;52.388;13.390;2024-01-27T04:06:40;101946.91;;;1.42;100.00
36092;BME280;22147;52.388;13.390;2024-01-27T04:09:11;101964.03;;;1.37;100.00
36092;BME280;22147;52.388;13.390;2024-01-27T04:11:41;101967.13;;;1.41;100.00
36092;BME280;22147;52.388;13.390;2024-01-27T04:14:11;101967.50;;;1.45;100.00
36092;BME280;22147;52.388;13.390;2024-01-27T04:16:42;101967.72;;;1.43;100.00
36092;BME280;22147;52.388;13.390;2024-01-27T04:19:12;101954.16;;;1.36;100.00
36092;BME280;22147;52.388;13.390;2024-01-27T04:21:42;101965.00;;;1.31;100.00
36092;BME280;22147;52.388;13.390;2024-01-27T04:24:12;101966.16;;;1.35;100.00
36092;BME280;22147;52.388;13.390;2024-01-27T04:26:43;101975.94;;;1.31;100.00
36092;BME280;22147;52.388;13.390;2024-01-27T04:29:13;101990.69;;;1.30;100.00
36092;BME280;22147;52.388;13.390;2024-01-27T04:31:45;101989.84;;;1.30;100.00
36092;BME280;22147;52.388;13.390;2024-01-27T04:34:15;101995.66;;;1.33;100.00
36092;BME280;22147;52.388;13.390;2024-01-27T04:36:45;102007.81;;;1.37;100.00
36092;BME280;22147;52.388;13.390;2024-01-27T04:39:14;102011.88;;;1.35;100.00
36092;BME280;22147;52.388;13.390;2024-01-27T04:41:43;101990.13;;;1.40;100.00
36092;BME280;22147;52.388;13.390;2024-01-27T04:44:14;102008.19;;;1.41;100.00
36092;BME280;22147;52.388;13.390;2024-01-27T04:46:44;102014.84;;;1.33;100.00
36092;BME280;22147;52.388;13.390;2024-01-27T04:49:15;102025.06;;;1.26;100.00
36092;BME280;22147;52.388;13.390;2024-01-27T04:51:46;102024.63;;;1.29;100.00
36092;BME280;22147;52.388;13.390;2024-01-27T04:54:16;102032.56;;;1.31;100.00
36092;BME280;22147;52.388;13.390;2024-01-27T04:56:46;102040.00;;;1.42;100.00
36092;BME280;22147;52.388;13.390;2024-01-27T04:59:16;102049.50;;;1.39;100.00
36092;BME280;22147;52.388;13.390;2024-01-27T05:01:47;102051.28;;;1.34;100.00
36092;BME280;22147;52.388;13.390;2024-01-27T05:04:17;102048.75;;;1.32;100.00
36092;BME280;22147;52.388;13.390;2024-01-27T05:06:48;102055.09;;;1.45;100.00
36092;BME280;22147;52.388;13.390;2024-01-27T05:09:19;102061.69;;;1.55;100.00
36092;BME280;22147;52.388;13.390;2024-01-27T05:11:49;102061.19;;;1.58;100.00
36092;BME280;22147;52.388;13.390;2024-01-27T05:14:22;102061.06;;;1.53;100.00
36092;BME280;22147;52.388;13.390;2024-01-27T05:16:52;102075.50;;;1.60;100.00
36092;BME280;22147;52.388;13.390;2024-01-27T05:19:23;102084.56;;;1.61;100.00
36092;BME280;22147;52.388;13.390;2024-01-27T05:21:53;102088.13;;;1.61;100.00
36092;BME280;22147;52.388;13.390;2024-01-27T05:24:24;102090.19;;;1.78;100.00
36092;BME280;22147;52.388;13.390;2024-01-27T05:26:54;102094.91;;;1.71;100.00
36092;BME280;22147;52.388;13.390;2024-01-27T05:29:27;102099.56;;;1.70;100.00
36092;BME280;22147;52.388;13.390;2024-01-27T05:31:58;102099.34;;;1.72;100.00
36092;BME280;22147;52.388;13.390;2024-01-27T05:34:28;102104.44;;;1.68;100.00
36092;BME280;22147;52.388;13.390;2024-01-27T05:36:58;102106.84;;;1.88;100.00
36092;BME280;22147;52.388;13.390;2024-01-27T05:39:28;102108.53;;;1.89;100.00
36092;BME280;22147;52.388;13.390;2024-01-27T05:41:59;102103.78;;;1.85;100.00
36092;BME280;22147;52.388;13.390;2024-01-27T05:44:29;102102.69;;;1.86;100.00
36092;BME280;22147;52.388;13.390;2024-01-27T05:46:59;102100.44;;;1.82;100.00
36092;BME280;22147;52.388;13.390;2024-01-27T05:49:30;102109.84;;;1.87;100.00
36092;BME280;22147;52.388;13.390;2024-01-27T05:52:00;102097.69;;;1.82;100.00
36092;BME280;22147;52.388;13.390;2024-01-27T05:54:28;102095.28;;;1.86;100.00
36092;BME280;22147;52.388;13.390;2024-01-27T05:56:56;102097.31;;;1.79;100.00
36092;BME280;22147;52.388;13.390;2024-01-27T05:59:27;102094.47;;;1.86;100.00
36092;BME280;22147;52.388;13.390;2024-01-27T06:01:55;102097.91;;;1.81;100.00
36092;BME280;22147;52.388;13.390;2024-01-27T06:04:27;102101.03;;;1.85;100.00
36092;BME280;22147;52.388;13.390;2024-01-27T06:06:58;102109.38;;;1.90;100.00
36092;BME280;22147;52.388;13.390;2024-01-27T06:09:28;102109.97;;;1.80;100.00
36092;BME280;22147;52.388;13.390;2024-01-27T06:11:59;102118.31;;;1.85;100.00
36092;BME280;22147;52.388;13.390;2024-01-27T06:14:33;102115.44;;;1.92;100.00
36092;BME280;22147;52.388;13.390;2024-01-27T06:17:04;102125.56;;;1.91;100.00
36092;BME280;22147;52.388;13.390;2024-01-27T06:19:35;102130.84;;;1.93;100.00
36092;BME280;22147;52.388;13.390;2024-01-27T06:22:06;102135.22;;;1.94;100.00
36092;BME280;22147;52.388;13.390;2024-01-27T06:24:44;102132.44;;;1.82;100.00
36092;BME280;22147;52.388;13.390;2024-01-27T06:27:14;102136.66;;;1.96;100.00
36092;BME280;22147;52.388;13.390;2024-01-27T06:29:45;102138.81;;;2.06;100.00
36092;BME280;22147;52.388;13.390;2024-01-27T06:32:15;102140.38;;;2.02;100.00
36092;BME280;22147;52.388;13.390;2024-01-27T06:34:45;102143.81;;;2.09;100.00
36092;BME280;22147;52.388;13.390;2024-01-27T06:37:15;102152.78;;;2.16;100.00
36092;BME280;22147;52.388;13.390;2024-01-27T06:39:49;102143.00;;;2.09;100.00
36092;BME280;22147;52.388;13.390;2024-01-27T06:42:19;102134.16;;;1.95;100.00
36092;BME280;22147;52.388;13.390;2024-01-27T06:44:49;102135.22;;;1.94;100.00
36092;BME280;22147;52.388;13.390;2024-01-27T06:47:20;102147.88;;;1.95;100.00
36092;BME280;22147;52.388;13.390;2024-01-27T06:49:50;102156.81;;;2.02;100.00
36092;BME280;22147;52.388;13.390;2024-01-27T06:52:21;102164.44;;;2.00;100.00
36092;BME280;22147;52.388;13.390;2024-01-27T06:54:51;102180.75;;;1.95;100.00
36092;BME280;22147;52.388;13.390;2024-01-27T06:57:23;102182.19;;;1.97;100.00
36092;BME280;22147;52.388;13.390;2024-01-27T06:59:54;102187.94;;;2.08;100.00
36092;BME280;22147;52.388;13.390;2024-01-27T07:02:26;102191.72;;;2.07;100.00
36092;BME280;22147;52.388;13.390;2024-01-27T07:04:57;102193.16;;;2.09;100.00
36092;BME280;22147;52.388;13.390;2024-01-27T07:07:28;102198.63;;;2.09;100.00
36092;BME280;22147;52.388;13.390;2024-01-27T07:09:59;102209.16;;;2.12;100.00
36092;BME280;22147;52.388;13.390;2024-01-27T07:12:29;102208.53;;;2.10;100.00
36092;BME280;22147;52.388;13.390;2024-01-27T07:15:00;102220.44;;;2.04;100.00
36092;BME280;22147;52.388;13.390;2024-01-27T07:17:30;102217.69;;;2.04;100.00
36092;BME280;22147;52.388;13.390;2024-01-27T07:20:00;102224.28;;;2.15;100.00
36092;BME280;22147;52.388;13.390;2024-01-27T07:22:31;102232.13;;;2.11;100.00
36092;BME280;22147;52.388;13.390;2024-01-27T07:25:01;102232.72;;;2.13;100.00
36092;BME280;22147;52.388;13.390;2024-01-27T07:27:31;102236.91;;;2.16;100.00
36092;BME280;22147;52.388;13.390;2024-01-27T07:30:03;102247.03;;;2.15;100.00
36092;BME280;22147;52.388;13.390;2024-01-27T07:32:34;102245.00;;;2.11;100.00
36092;BME280;22147;52.388;13.390;2024-01-27T07:35:05;102245.97;;;2.16;100.00
36092;BME280;22147;52.388;13.390;2024-01-27T07:37:36;102256.63;;;2.24;100.00
36092;BME280;22147;52.388;13.390;2024-01-27T07:40:10;102255.41;;;2.20;100.00
36092;BME280;22147;52.388;13.390;2024-01-27T07:42:40;102251.69;;;2.15;100.00
36092;BME280;22147;52.388;13.390;2024-01-27T07:45:11;102260.78;;;2.27;100.00
36092;BME280;22147;52.388;13.390;2024-01-27T07:47:39;102258.31;;;2.37;100.00
36092;BME280;22147;52.388;13.390;2024-01-27T07:50:07;102254.47;;;2.38;100.00
36092;BME280;22147;52.388;13.390;2024-01-27T07:52:37;102269.50;;;2.36;100.00
36092;BME280;22147;52.388;13.390;2024-01-27T07:55:06;102267.22;;;2.33;100.00
36092;BME280;22147;52.388;13.390;2024-01-27T07:57:36;102277.84;;;2.41;100.00
36092;BME280;22147;52.388;13.390;2024-01-27T08:00:08;102276.91;;;2.35;100.00
36092;BME280;22147;52.388;13.390;2024-01-27T08:02:39;102276.78;;;2.42;100.00
36092;BME280;22147;52.388;13.390;2024-01-27T08:05:10;102282.88;;;2.44;100.00
36092;BME280;22147;52.388;13.390;2024-01-27T08:07:40;102290.72;;;2.40;100.00
36092;BME280;22147;52.388;13.390;2024-01-27T08:10:11;102283.31;;;2.41;100.00
36092;BME280;22147;52.388;13.390;2024-01-27T08:12:41;102285.00;;;2.42;100.00
36092;BME280;22147;52.388;13.390;2024-01-27T08:15:10;102284.53;;;2.45;100.00
36092;BME280;22147;52.388;13.390;2024-01-27T08:17:40;102299.44;;;2.49;100.00
36092;BME280;22147;52.388;13.390;2024-01-27T08:20:11;102292.41;;;2.53;100.00
36092;BME280;22147;52.388;13.390;2024-01-27T08:22:42;102295.66;;;2.50;100.00
36092;BME280;22147;52.388;13.390;2024-01-27T08:25:12;102298.50;;;2.55;100.00
36092;BME280;22147;52.388;13.390;2024-01-27T08:27:42;102293.84;;;2.56;100.00
36092;BME280;22147;52.388;13.390;2024-01-27T08:30:13;102310.34;;;2.68;100.00
36092;BME280;22147;52.388;13.390;2024-01-27T08:32:44;102309.13;;;2.63;100.00
36092;BME280;22147;52.388;13.390;2024-01-27T08:35:15;102312.00;;;2.69;100.00
36092;BME280;22147;52.388;13.390;2024-01-27T08:37:46;102314.41;;;2.65;100.00
36092;BME280;22147;52.388;13.390;2024-01-27T08:40:16;102316.66;;;2.68;100.00
36092;BME280;22147;52.388;13.390;2024-01-27T08:42:47;102316.91;;;2.78;100.00
36092;BME280;22147;52.388;13.390;2024-01-27T08:45:17;102324.69;;;2.93;100.00
36092;BME280;22147;52.388;13.390;2024-01-27T08:47:47;102326.81;;;2.91;100.00
36092;BME280;22147;52.388;13.390;2024-01-27T08:50:18;102322.66;;;2.89;100.00
36092;BME280;22147;52.388;13.390;2024-01-27T08:52:48;102331.38;;;2.97;100.00
36092;BME280;22147;52.388;13.390;2024-01-27T08:55:19;102335.19;;;3.08;100.00
36092;BME280;22147;52.388;13.390;2024-01-27T08:57:50;102336.72;;;3.04;100.00
36092;BME280;22147;52.388;13.390;2024-01-27T09:00:21;102337.94;;;3.08;100.00
36092;BME280;22147;52.388;13.390;2024-01-27T09:02:52;102346.53;;;3.12;100.00
36092;BME280;22147;52.388;13.390;2024-01-27T09:05:23;102347.97;;;3.14;100.00
36092;BME280;22147;52.388;13.390;2024-01-27T09:07:53;102349.00;;;3.13;100.00
36092;BME280;22147;52.388;13.390;2024-01-27T09:10:24;102346.41;;;3.18;100.00
36092;BME280;22147;52.388;13.390;2024-01-27T09:12:54;102352.97;;;3.29;100.00
36092;BME280;22147;52.388;13.390;2024-01-27T09:15:24;102345.56;;;3.30;100.00
36092;BME280;22147;52.388;13.390;2024-01-27T09:17:54;102348.66;;;3.33;100.00
36092;BME280;22147;52.388;13.390;2024-01-27T09:20:26;102353.44;;;3.38;100.00
36092;BME280;22147;52.388;13.390;2024-01-27T09:22:56;102350.22;;;3.41;100.00
36092;BME280;22147;52.388;13.390;2024-01-27T09:25:26;102352.97;;;3.41;100.00
36092;BME280;22147;52.388;13.390;2024-01-27T09:27:57;102354.50;;;3.49;100.00
36092;BME280;22147;52.388;13.390;2024-01-27T09:30:30;102360.94;;;3.54;100.00
36092;BME280;22147;52.388;13.390;2024-01-27T09:33:04;102362.13;;;3.58;100.00
36092;BME280;22147;52.388;13.390;2024-01-27T09:35:35;102359.03;;;3.55;100.00
36092;BME280;22147;52.388;13.390;2024-01-27T09:38:05;102358.81;;;3.44;100.00
36092;BME280;22147;52.388;13.390;2024-01-27T09:40:39;102365.03;;;3.52;100.00
36092;BME280;22147;52.388;13.390;2024-01-27T09:43:13;102369.06;;;3.49;100.00
36092;BME280;22147;52.388;13.390;2024-01-27T09:45:45;102370.75;;;3.50;100.00
36092;BME280;22147;52.388;13.390;2024-01-27T09:48:13;102375.88;;;3.46;100.00
36092;BME280;22147;52.388;13.390;2024-01-27T09:50:42;102382.59;;;3.39;100.00
36092;BME280;22147;52.388;13.390;2024-01-27T09:53:12;102379.59;;;3.40;100.00
36092;BME280;22147;52.388;13.390;2024-01-27T09:55:41;102383.66;;;3.50;100.00
36092;BME280;22147;52.388;13.390;2024-01-27T09:58:14;102396.44;;;3.56;100.00
36092;BME280;22147;52.388;13.390;2024-01-27T10:00:45;102394.50;;;3.56;100.00
36092;BME280;22147;52.388;13.390;2024-01-27T10:03:17;102392.84;;;3.43;100.00
36092;BME280;22147;52.388;13.390;2024-01-27T10:05:53;102397.75;;;3.41;100.00
36092;BME280;22147;52.388;13.390;2024-01-27T10:08:25;102399.28;;;3.49;100.00
36092;BME280;22147;52.388;13.390;2024-01-27T10:10:56;102393.69;;;3.44;100.00
36092;BME280;22147;52.388;13.390;2024-01-27T10:13:26;102389.38;;;3.48;100.00
36092;BME280;22147;52.388;13.390;2024-01-27T10:16:06;102397.13;;;3.51;100.00
36092;BME280;22147;52.388;13.390;2024-01-27T10:18:37;102390.44;;;3.47;100.00
36092;BME280;22147;52.388;13.390;2024-01-27T10:21:15;102396.53;;;3.49;100.00
36092;BME280;22147;52.388;13.390;2024-01-27T10:23:46;102394.50;;;3.56;100.00
36092;BME280;22147;52.388;13.390;2024-01-27T10:26:17;102398.91;;;3.57;100.00
36092;BME280;22147;52.388;13.390;2024-01-27T10:28:57;102400.25;;;3.55;100.00
36092;BME280;22147;52.388;13.390;2024-01-27T10:31:34;102406.56;;;3.67;100.00
36092;BME280;22147;52.388;13.390;2024-01-27T10:34:05;102411.94;;;3.62;100.00
36092;BME280;22147;52.388;13.390;2024-01-27T10:36:43;102411.94;;;3.62;100.00
36092;BME280;22147;52.388;13.390;2024-01-27T10:39:21;102414.69;;;3.74;100.00
36092;BME280;22147;52.388;13.390;2024-01-27T10:41:53;102403.78;;;3.91;100.00
36092;BME280;22147;52.388;13.390;2024-01-27T10:44:27;102417.53;;;3.79;100.00
36092;BME280;22147;52.388;13.390;2024-01-27T10:47:02;102403.56;;;3.80;100.00
36092;BME280;22147;52.388;13.390;2024-01-27T10:49:42;102415.88;;;3.78;100.00
36092;BME280;22147;52.388;13.390;2024-01-27T10:52:18;102411.19;;;3.78;100.00
36092;BME280;22147;52.388;13.390;2024-01-27T10:54:58;102401.91;;;3.79;100.00
36092;BME280;22147;52.388;13.390;2024-01-27T10:57:33;102406.16;;;3.87;100.00
36092;BME280;22147;52.388;13.390;2024-01-27T11:00:05;102408.81;;;3.94;100.00
36092;BME280;22147;52.388;13.390;2024-01-27T11:02:36;102416.47;;;3.92;100.00
36092;BME280;22147;52.388;13.390;2024-01-27T11:05:13;102415.72;;;3.84;100.00
36092;BME280;22147;52.388;13.390;2024-01-27T11:07:46;102423.97;;;3.84;100.00
36092;BME280;22147;52.388;13.390;2024-01-27T11:10:17;102427.22;;;3.81;100.00
36092;BME280;22147;52.388;13.390;2024-01-27T11:12:48;102421.69;;;3.93;100.00
36092;BME280;22147;52.388;13.390;2024-01-27T11:15:21;102423.63;;;3.93;100.00
36092;BME280;22147;52.388;13.390;2024-01-27T11:17:57;102426.25;;;3.87;100.00
36092;BME280;22147;52.388;13.390;2024-01-27T11:20:34;102424.09;;;3.90;100.00
36092;BME280;22147;52.388;13.390;2024-01-27T11:23:11;102423.88;;;3.79;100.00
36092;BME280;22147;52.388;13.390;2024-01-27T11:25:43;102422.28;;;3.95;100.00
36092;BME280;22147;52.388;13.390;2024-01-27T11:28:16;102416.69;;;3.90;100.00
36092;BME280;22147;52.388;13.390;2024-01-27T11:30:47;102427.06;;;4.00;100.00
36092;BME280;22147;52.388;13.390;2024-01-27T11:33:19;102425.75;;;3.91;100.00
36092;BME280;22147;52.388;13.390;2024-01-27T11:36:03;102426.97;;;3.83;100.00
36092;BME280;22147;52.388;13.390;2024-01-27T11:38:35;102425.75;;;3.91;100.00
36092;BME280;22147;52.388;13.390;2024-01-27T11:41:05;102429.47;;;3.96;100.00
36092;BME280;22147;52.388;13.390;2024-01-27T11:43:36;102424.91;;;4.02;100.00
36092;BME280;22147;52.388;13.390;2024-01-27T11:46:07;102433.03;;;4.08;100.00
36092;BME280;22147;52.388;13.390;2024-01-27T11:48:42;102435.91;;;4.02;100.00
36092;BME280;22147;52.388;13.390;2024-01-27T11:51:12;102433.38;;;4.12;100.00
36092;BME280;22147;52.388;13.390;2024-01-27T11:53:43;102433.50;;;4.05;100.00
36092;BME280;22147;52.388;13.390;2024-01-27T11:56:14;102444.03;;;4.08;100.00
36092;BME280;22147;52.388;13.390;2024-01-27T11:58:49;102451.09;;;4.04;100.00
36092;BME280;22147;52.388;13.390;2024-01-27T12:01:20;102447.63;;;4.09;100.00
36092;BME280;22147;52.388;13.390;2024-01-27T12:03:51;102451.56;;;4.13;100.00
36092;BME280;22147;52.388;13.390;2024-01-27T12:06:23;102456.69;;;4.10;100.00
36092;BME280;22147;52.388;13.390;2024-01-27T12:08:55;102447.94;;;4.13;100.00
36092;BME280;22147;52.388;13.390;2024-01-27T12:11:27;102468.28;;;4.12;100.00
36092;BME280;22147;52.388;13.390;2024-01-27T12:14:00;102467.81;;;4.03;100.00
36092;BME280;22147;52.388;13.390;2024-01-27T12:16:30;102473.06;;;4.16;100.00
36092;BME280;22147;52.388;13.390;2024-01-27T12:19:01;102482.13;;;4.28;100.00
36092;BME280;22147;52.388;13.390;2024-01-27T12:21:32;102482.84;;;4.24;100.00
36092;BME280;22147;52.388;13.390;2024-01-27T12:24:03;102485.47;;;4.31;100.00
36092;BME280;22147;52.388;13.390;2024-01-27T12:26:34;102490.13;;;4.30;100.00
36092;BME280;22147;52.388;13.390;2024-01-27T12:29:09;102491.72;;;4.14;100.00
36092;BME280;22147;52.388;13.390;2024-01-27T12:31:41;102492.19;;;4.11;100.00
36092;BME280;22147;52.388;13.390;2024-01-27T12:34:13;102499.50;;;4.05;100.00
36092;BME280;22147;52.388;13.390;2024-01-27T12:36:47;102497.47;;;4.01;100.00
36092;BME280;22147;52.388;13.390;2024-01-27T12:39:17;102495.09;;;4.04;100.00
36092;BME280;22147;52.388;13.390;2024-01-27T12:41:47;102493.50;;;4.20;100.00
36092;BME280;22147;52.388;13.390;2024-01-27T12:44:18;102497.78;;;4.28;100.00
36092;BME280;22147;52.388;13.390;2024-01-27T12:46:48;102496.69;;;4.29;100.00
36092;BME280;22147;52.388;13.390;2024-01-27T12:49:19;102509.13;;;4.32;100.00
36092;BME280;22147;52.388;13.390;2024-01-27T12:51:50;102499.22;;;4.31;100.00
36092;BME280;22147;52.388;13.390;2024-01-27T12:54:21;102500.53;;;4.28;100.00
36092;BME280;22147;52.388;13.390;2024-01-27T12:56:52;102512.59;;;4.27;100.00
36092;BME280;22147;52.388;13.390;2024-01-27T12:59:24;102492.06;;;4.18;100.00